Terminal Aerodrome Forecast
Issued by NWS

Home | Current Version | Previous Version | Text Only | Print | Product List | Glossary Off
Versions: 1 2 3 4 5 6 7 8 9 10 11 12 13 14 15 16 17 18 19 20 21 22 23 24 25 26 27 28 29 30

938
FTUS43 KLOT 050908 AAA
TAFORD
TAF AMD
KORD 050908Z 0509/0612 26010G17KT P6SM OVC010
     FM051000 26010G16KT 6SM BR OVC008
     FM051200 23007KT 2SM BR OVC004
      TEMPO 0513/0516 3/4SM BR VV003
     FM051600 20010KT 2SM BR OVC003
     FM051900 19010KT 5SM BR OVC005
     FM060200 15006KT 6SM BR OVC008=

USA.gov is the U.S. government's official web portal to all federal, state and local government web resources and services.